Time;durP1;ratioP1;P1;durP2;ratioP2;P2;SDS_P1;SDS_P2;PMS_P1;PMS_P2;Temp;Humidity;BMP_temperature;BMP_pressure;BME280_temperature;BME280_humidity;BME280_pressure;Samples;Min_cycle;Max_cycle;Signal;HPM_P1;HPM_P2
2022/10/23 00:00:57;;;;;;;;;;;;;;;14.85;46.03;99107.41;5015868;28;19918;-77
2022/10/23 00:03:22;;;;;;;;;;;;;;;14.83;46.13;99104.91;5015233;28;19918;-77
2022/10/23 00:05:47;;;;;;;;;;;;;;;14.83;46.16;99106.69;5016573;28;19924;-77
2022/10/23 00:08:13;;;;;;;;;;;;;;;14.83;46.13;99097.00;5016518;28;19918;-80
2022/10/23 00:10:39;;;;;;;;;;;;;;;14.83;46.09;99102.28;5016579;28;20430;-78
2022/10/23 00:13:04;;;;;;;;;;;;;;;14.84;46.05;99110.97;5015514;28;20020;-77
2022/10/23 00:15:30;;;;;;;;;;;;;;;14.84;46.25;99095.22;5015230;28;20397;-78
2022/10/23 00:17:55;;;;;;;;;;;;;;;14.83;46.15;99086.50;5016642;28;19926;-77
2022/10/23 00:20:20;;;;;;;;;;;;;;;14.82;46.27;99086.63;5015444;28;20309;-78
2022/10/23 00:22:46;;;;;;;;;;;;;;;14.83;46.35;99081.25;5015717;28;19973;-77
2022/10/23 00:25:11;;;;;;;;;;;;;;;14.86;46.31;99081.94;5015027;28;20015;-79
2022/10/23 00:27:36;;;;;;;;;;;;;;;14.87;46.28;99079.16;5015901;28;19917;-79
2022/10/23 00:30:02;;;;;;;;;;;;;;;14.87;46.21;99086.22;5016442;28;20281;-77
2022/10/23 00:32:28;;;;;;;;;;;;;;;14.83;46.32;99081.25;5014853;28;19917;-78
2022/10/23 00:34:53;;;;;;;;;;;;;;;14.82;46.22;99089.28;4998606;28;19924;-78
2022/10/23 00:37:18;;;;;;;;;;;;;;;14.80;46.38;99088.56;5015111;28;20415;-79
2022/10/23 00:39:44;;;;;;;;;;;;;;;14.77;46.60;99091.44;4998624;28;19917;-79
2022/10/23 00:42:10;;;;;;;;;;;;;;;14.74;46.62;99086.50;5014506;28;19917;-80
2022/10/23 00:44:35;;;;;;;;;;;;;;;14.72;46.70;99085.78;4998229;28;19922;-78
2022/10/23 00:47:00;;;;;;;;;;;;;;;14.68;46.49;99082.59;5015581;28;19917;-78
2022/10/23 00:49:27;;;;;;;;;;;;;;;14.67;46.60;99080.09;5015572;28;19933;-91
2022/10/23 00:51:53;;;;;;;;;;;;;;;14.65;46.55;99074.97;4999611;28;20035;-92
2022/10/23 00:54:18;;;;;;;;;;;;;;;14.64;46.50;99074.16;5018136;28;20340;-82
2022/10/23 00:56:44;;;;;;;;;;;;;;;14.65;46.66;99080.22;5000300;28;19972;-91
2022/10/23 00:59:09;;;;;;;;;;;;;;;14.63;46.80;99074.28;5014873;28;20016;-93
2022/10/23 01:01:34;;;;;;;;;;;;;;;14.60;46.82;99067.50;5001825;28;20323;-93
2022/10/23 01:04:00;;;;;;;;;;;;;;;14.58;46.99;99066.78;5019378;28;19939;-93
2022/10/23 01:06:29;;;;;;;;;;;;;;;14.57;47.01;99069.53;5019314;28;19917;-91
2022/10/23 01:09:00;;;;;;;;;;;;;;;14.53;47.08;99073.38;5035473;28;19921;-93
2022/10/23 01:11:46;;;;;;;;;;;;;;;14.51;47.25;99064.81;5036365;28;19971;-91
2022/10/23 01:14:23;;;;;;;;;;;;;;;14.54;47.11;99054.88;5034310;28;20023;-88
2022/10/23 01:17:08;;;;;;;;;;;;;;;14.53;47.39;99061.09;5018242;28;19978;-87
2022/10/23 01:19:33;;;;;;;;;;;;;;;14.53;47.26;99073.38;5035329;28;19917;-87
2022/10/23 01:22:11;;;;;;;;;;;;;;;14.52;47.39;99075.19;5033730;28;20395;-87
2022/10/23 01:24:39;;;;;;;;;;;;;;;14.51;47.48;99065.63;5035053;28;20424;-88
2022/10/23 01:27:13;;;;;;;;;;;;;;;14.51;47.48;99064.81;5035467;28;19924;-87
2022/10/23 01:29:40;;;;;;;;;;;;;;;14.52;47.39;99067.31;5034974;28;19925;-88
2022/10/23 01:32:10;;;;;;;;;;;;;;;14.55;47.43;99063.56;5033894;28;19963;-88
2022/10/23 01:34:46;;;;;;;;;;;;;;;14.57;47.19;99062.47;5034387;28;19974;-89
2022/10/23 01:37:12;;;;;;;;;;;;;;;14.60;47.02;99054.38;5017735;28;19974;-91
2022/10/23 01:39:39;;;;;;;;;;;;;;;14.59;47.07;99057.91;5017802;28;19917;-90
2022/10/23 01:42:09;;;;;;;;;;;;;;;14.57;47.31;99059.03;5033697;28;19991;-90
2022/10/23 01:44:34;;;;;;;;;;;;;;;14.54;47.35;99051.41;5017663;28;19917;-90
2022/10/23 01:47:00;;;;;;;;;;;;;;;14.53;47.37;99065.50;5033727;28;19940;-88
2022/10/23 01:49:25;;;;;;;;;;;;;;;14.51;47.45;99067.44;5034035;28;20334;-87
2022/10/23 01:51:53;;;;;;;;;;;;;;;14.51;47.40;99065.63;5034900;28;19974;-87
2022/10/23 01:54:19;;;;;;;;;;;;;;;14.48;47.60;99058.88;5017720;28;20346;-84
2022/10/23 01:56:45;;;;;;;;;;;;;;;14.48;47.51;99060.66;5017153;28;20416;-85
2022/10/23 01:59:12;;;;;;;;;;;;;;;14.50;47.41;99060.53;5033477;28;19974;-84
2022/10/23 02:01:38;;;;;;;;;;;;;;;14.50;47.30;99052.63;5017016;28;19975;-85
2022/10/23 02:04:04;;;;;;;;;;;;;;;14.50;47.43;99050.00;5035031;28;19948;-87
2022/10/23 02:06:30;;;;;;;;;;;;;;;14.53;47.63;99060.25;5041436;28;19956;-85
2022/10/23 02:08:55;;;;;;;;;;;;;;;14.55;47.56;99067.03;5045453;28;20332;-86
2022/10/23 02:11:20;;;;;;;;;;;;;;;14.58;47.38;99079.06;5018255;28;20381;-85
2022/10/23 02:13:52;;;;;;;;;;;;;;;14.60;47.27;99072.75;5034618;28;20296;-86
2022/10/23 02:16:17;;;;;;;;;;;;;;;14.63;47.36;99061.97;5031134;28;19921;-87
2022/10/23 02:18:42;;;;;;;;;;;;;;;14.64;47.40;99068.06;5014431;28;19928;-87
2022/10/23 02:21:12;;;;;;;;;;;;;;;14.62;47.62;99073.44;5013542;28;20405;-81
2022/10/23 02:23:43;;;;;;;;;;;;;;;14.63;47.70;99076.91;4997437;28;19917;-81
2022/10/23 02:26:21;;;;;;;;;;;;;;;14.61;47.65;99076.19;4996662;28;19921;-80
2022/10/23 02:29:04;;;;;;;;;;;;;;;14.61;47.61;99078.81;5013640;28;20389;-79
2022/10/23 02:31:29;;;;;;;;;;;;;;;14.61;47.64;99079.69;4996871;28;19975;-82
2022/10/23 02:33:55;;;;;;;;;;;;;;;14.63;47.50;99084.81;4996414;28;19925;-82
2022/10/23 02:36:20;;;;;;;;;;;;;;;14.63;47.62;99093.50;4996445;28;20442;-82
2022/10/23 02:38:45;;;;;;;;;;;;;;;14.64;47.58;99084.66;4996227;28;19917;-82
2022/10/23 02:41:37;;;;;;;;;;;;;;;14.66;47.58;99092.41;5012877;28;19968;-83
2022/10/23 02:44:14;;;;;;;;;;;;;;;14.68;47.58;99089.66;5010120;28;20463;-83
2022/10/23 02:46:59;;;;;;;;;;;;;;;14.66;47.58;99095.03;5014184;28;19921;-82
2022/10/23 02:49:34;;;;;;;;;;;;;;;14.64;47.65;99089.91;4997587;28;19922;-83
2022/10/23 02:52:09;;;;;;;;;;;;;;;14.63;47.75;99090.06;5013209;28;19921;-83
2022/10/23 02:54:40;;;;;;;;;;;;;;;14.62;47.62;99097.09;5014089;28;20361;-84
2022/10/23 02:57:11;;;;;;;;;;;;;;;14.62;47.74;99089.19;5013105;28;19921;-84
2022/10/23 02:59:40;;;;;;;;;;;;;;;14.61;47.75;99099.84;5045615;28;19928;-84
2022/10/23 03:02:05;;;;;;;;;;;;;;;14.58;47.66;99095.69;5045241;28;19925;-84
2022/10/23 03:04:30;;;;;;;;;;;;;;;14.58;47.80;99111.44;5013551;28;19924;-86
2022/10/23 03:06:56;;;;;;;;;;;;;;;14.55;47.93;99102.97;5045381;28;20292;-82
2022/10/23 03:09:21;;;;;;;;;;;;;;;14.55;47.86;99113.47;5013837;28;20373;-82
2022/10/23 03:11:46;;;;;;;;;;;;;;;14.52;47.81;99114.59;5045259;28;19918;-86
2022/10/23 03:14:12;;;;;;;;;;;;;;;14.53;47.88;99107.53;5012395;28;19918;-86
2022/10/23 03:16:37;;;;;;;;;;;;;;;14.57;47.85;99117.66;5044510;28;19921;-86
2022/10/23 03:19:02;;;;;;;;;;;;;;;14.56;47.54;99120.41;5042287;28;19925;-85
2022/10/23 03:21:27;;;;;;;;;;;;;;;14.54;47.91;99122.34;5027837;28;19925;-85
2022/10/23 03:23:53;;;;;;;;;;;;;;;14.50;48.37;99113.91;5045548;28;19925;-84
2022/10/23 03:26:18;;;;;;;;;;;;;;;14.51;48.37;99119.97;5028783;28;20015;-83
2022/10/23 03:28:43;;;;;;;;;;;;;;;14.50;48.51;99108.66;5013155;28;19917;-83
2022/10/23 03:31:09;;;;;;;;;;;;;;;14.49;48.57;99122.75;5045113;28;20323;-83
2022/10/23 03:33:34;;;;;;;;;;;;;;;14.52;48.42;99124.28;5027860;28;19927;-83
2022/10/23 03:35:59;;;;;;;;;;;;;;;14.52;48.43;99116.41;5045382;28;19921;-84
2022/10/23 03:38:25;;;;;;;;;;;;;;;14.51;48.61;99120.81;5012871;28;19987;-85
2022/10/23 03:40:50;;;;;;;;;;;;;;;14.53;48.39;99118.91;5013661;28;19918;-84
2022/10/23 03:43:15;;;;;;;;;;;;;;;14.56;48.46;99115.16;5028482;28;20351;-85
2022/10/23 03:45:40;;;;;;;;;;;;;;;14.56;48.52;99113.34;5045116;28;19917;-85
2022/10/23 03:48:06;;;;;;;;;;;;;;;14.57;48.57;99120.28;5046490;28;19925;-89
2022/10/23 03:50:31;;;;;;;;;;;;;;;14.59;48.37;99118.34;5045895;28;19957;-87
2022/10/23 03:52:57;;;;;;;;;;;;;;;14.58;48.51;99115.84;5045112;28;19918;-86
2022/10/23 03:55:24;;;;;;;;;;;;;;;14.58;48.47;99115.84;5029811;28;19921;-86
2022/10/23 03:57:49;;;;;;;;;;;;;;;14.58;48.45;99106.19;5031449;28;20384;-87
2022/10/23 04:00:15;;;;;;;;;;;;;;;14.61;48.43;99097.22;5015035;28;19928;-85
2022/10/23 04:02:40;;;;;;;;;;;;;;;14.61;48.30;99097.22;5015011;28;19917;-87
2022/10/23 04:05:06;;;;;;;;;;;;;;;14.61;48.36;99115.59;5031392;28;19924;-88
2022/10/23 04:07:31;;;;;;;;;;;;;;;14.62;48.12;99112.03;5032399;28;19917;-86
2022/10/23 04:09:56;;;;;;;;;;;;;;;14.61;48.15;99111.22;5015132;28;20011;-88
2022/10/23 04:12:22;;;;;;;;;;;;;;;14.60;48.18;99114.78;5033115;28;19924;-86
2022/10/23 04:14:47;;;;;;;;;;;;;;;14.57;48.35;99115.03;5031723;28;19917;-87
2022/10/23 04:17:12;;;;;;;;;;;;;;;14.57;48.08;99115.03;5031706;28;20278;-86
2022/10/23 04:19:38;;;;;;;;;;;;;;;14.57;48.23;99115.03;5032661;28;19917;-82
2022/10/23 04:22:03;;;;;;;;;;;;;;;14.59;48.13;99122.78;5031357;28;19921;-79
2022/10/23 04:24:28;;;;;;;;;;;;;;;14.56;48.26;99123.84;5032550;28;19924;-79
2022/10/23 04:26:53;;;;;;;;;;;;;;;14.56;48.33;99128.28;5031329;28;19975;-78
2022/10/23 04:29:21;;;;;;;;;;;;;;;14.58;48.18;99126.34;5031598;28;20032;-79
2022/10/23 04:31:47;;;;;;;;;;;;;;;14.59;49.31;99135.91;4995582;28;19918;-78
2022/10/23 04:34:12;;;;;;;;;;;;;;;14.59;49.27;99144.59;5015419;28;20371;-82
2022/10/23 04:36:37;;;;;;;;;;;;;;;14.58;48.95;99137.72;5016203;28;19975;-79
2022/10/23 04:39:03;;;;;;;;;;;;;;;14.58;48.79;99153.47;4999065;28;19917;-81
2022/10/23 04:41:28;;;;;;;;;;;;;;;14.57;48.67;99143.91;5016940;28;20403;-82
2022/10/23 04:43:53;;;;;;;;;;;;;;;14.54;48.65;99149.44;5025018;28;19917;-79
2022/10/23 04:46:19;;;;;;;;;;;;;;;14.55;48.54;99140.59;5008031;28;19918;-77
2022/10/23 04:48:44;;;;;;;;;;;;;;;14.53;48.58;99145.16;5023800;28;19925;-81
2022/10/23 04:51:09;;;;;;;;;;;;;;;14.53;48.60;99152.19;5010368;28;20277;-79
2022/10/23 04:53:35;;;;;;;;;;;;;;;14.49;48.70;99154.25;5011672;28;20373;-78
2022/10/23 04:56:00;;;;;;;;;;;;;;;14.47;48.94;99148.31;5007336;28;19917;-78
2022/10/23 04:58:26;;;;;;;;;;;;;;;14.45;48.64;99158.09;5024540;28;19923;-78
2022/10/23 05:00:51;;;;;;;;;;;;;;;14.42;49.04;99153.13;5003082;28;20381;-79
2022/10/23 05:03:16;;;;;;;;;;;;;;;14.41;49.00;99154.91;5014315;28;20301;-79
2022/10/23 05:05:42;;;;;;;;;;;;;;;14.43;51.96;99166.13;5018094;28;20670;-84
2022/10/23 05:08:07;;;;;;;;;;;;;;;14.50;50.02;99155.94;5034554;28;19924;-80
2022/10/23 05:10:32;;;;;;;;;;;;;;;14.56;49.78;99159.81;5034431;28;19923;-79
2022/10/23 05:12:58;;;;;;;;;;;;;;;14.85;48.68;99162.59;5035441;28;19917;-79
2022/10/23 05:15:23;;;;;;;;;;;;;;;15.26;47.41;99147.59;5017274;28;19924;-79
2022/10/23 05:17:49;;;;;;;;;;;;;;;15.64;46.66;99161.72;5029148;28;19929;-78
2022/10/23 05:20:17;;;;;;;;;;;;;;;16.04;45.56;99170.44;5006680;28;19921;-79
2022/10/23 05:22:42;;;;;;;;;;;;;;;16.47;44.61;99169.06;5022553;28;20388;-78
2022/10/23 05:25:08;;;;;;;;;;;;;;;16.93;43.01;99171.81;5006827;28;19959;-78
2022/10/23 05:27:33;;;;;;;;;;;;;;;17.41;42.00;99170.69;5005901;28;20048;-77
2022/10/23 05:29:58;;;;;;;;;;;;;;;17.86;40.84;99171.53;5022896;28;19928;-77
2022/10/23 05:32:24;;;;;;;;;;;;;;;18.34;39.83;99162.31;5005006;28;20407;-78
2022/10/23 05:34:49;;;;;;;;;;;;;;;18.86;38.70;99163.25;5021916;28;19921;-76
2022/10/23 05:37:15;;;;;;;;;;;;;;;19.59;53.17;99178.44;5021533;28;20347;-78
2022/10/23 05:39:40;;;;;;;;;;;;;;;20.32;49.38;99168.00;5021730;28;19918;-76
2022/10/23 05:42:05;;;;;;;;;;;;;;;20.94;47.36;99170.78;5022926;28;19922;-78
2022/10/23 05:44:31;;;;;;;;;;;;;;;21.50;45.02;99172.47;5021978;28;20315;-75
2022/10/23 05:46:56;;;;;;;;;;;;;;;22.02;43.38;99177.03;5022599;28;19917;-79
2022/10/23 05:49:24;;;;;;;;;;;;;;;22.52;42.22;99157.97;5020914;28;19937;-74
2022/10/23 05:51:50;;;;;;;;;;;;;;;23.03;40.32;99173.13;5005959;28;19925;-72
2022/10/23 05:54:15;;;;;;;;;;;;;;;23.53;38.96;99168.78;5023116;28;20446;-79
2022/10/23 05:56:40;;;;;;;;;;;;;;;24.03;37.98;99182.13;5021583;28;19917;-78
2022/10/23 05:59:06;;;;;;;;;;;;;;;24.51;37.10;99200.94;5014825;28;19944;-78
2022/10/23 06:01:31;;;;;;;;;;;;;;;25.00;36.64;99203.66;5029420;28;19925;-75
2022/10/23 06:04:00;;;;;;;;;;;;;;;25.45;36.33;99207.53;5046471;28;19917;-76
2022/10/23 06:06:25;;;;;;;;;;;;;;;25.91;35.43;99199.78;5045657;28;19932;-76
2022/10/23 06:08:51;;;;;;;;;;;;;;;26.31;35.39;99208.63;4996538;28;19917;-76
2022/10/23 06:11:16;;;;;;;;;;;;;;;26.70;35.10;99209.59;5012683;28;19940;-78
2022/10/23 06:13:41;;;;;;;;;;;;;;;27.10;34.29;99213.16;4995743;28;19918;-79
2022/10/23 06:16:10;;;;;;;;;;;;;;;27.50;33.45;99207.59;4995079;28;19917;-77
2022/10/23 06:18:36;;;;;;;;;;;;;;;27.90;32.44;99210.84;5023349;28;19925;-73
2022/10/23 06:21:01;;;;;;;;;;;;;;;28.28;31.67;99214.47;5033652;28;19940;-79
2022/10/23 06:23:26;;;;;;;;;;;;;;;28.67;30.86;99213.28;5013072;28;20393;-78
2022/10/23 06:25:55;;;;;;;;;;;;;;;29.11;29.92;99213.16;5013117;28;20013;-75
2022/10/23 06:28:21;;;;;;;;;;;;;;;29.54;29.46;99209.50;5014412;28;20012;-79
2022/10/23 06:30:46;;;;;;;;;;;;;;;30.12;28.21;99223.31;4993764;28;20016;-77
2022/10/23 06:33:11;;;;;;;;;;;;;;;30.78;27.11;99228.56;5046119;28;19917;-83
2022/10/23 06:35:36;;;;;;;;;;;;;;;31.58;26.33;99226.94;5013192;28;19976;-86
2022/10/23 06:38:02;;;;;;;;;;;;;;;32.46;24.70;99226.44;5029963;28;19975;-83
2022/10/23 06:40:27;;;;;;;;;;;;;;;33.46;23.76;99223.63;5030049;28;19917;-75
2022/10/23 06:42:54;;;;;;;;;;;;;;;33.82;19.45;99223.16;5046076;28;19921;-80
2022/10/23 06:45:19;;;;;;;;;;;;;;;34.36;19.66;99225.72;5046090;28;19917;-77
2022/10/23 06:47:44;;;;;;;;;;;;;;;34.73;17.60;99232.97;5045440;28;20012;-76
2022/10/23 06:50:10;;;;;;;;;;;;;;;35.06;16.09;99238.25;5012438;28;19925;-76
2022/10/23 06:52:35;;;;;;;;;;;;;;;35.24;15.62;99234.25;5013433;28;19921;-75
2022/10/23 06:55:00;;;;;;;;;;;;;;;35.11;15.50;99230.97;5042126;28;19921;-77
2022/10/23 06:57:26;;;;;;;;;;;;;;;34.97;16.34;99222.50;5009092;28;20307;-77
2022/10/23 06:59:51;;;;;;;;;;;;;;;34.57;16.77;99223.94;5023210;28;20396;-78
2022/10/23 07:02:16;;;;;;;;;;;;;;;34.07;17.41;99217.09;5003327;28;19918;-75
2022/10/23 07:04:42;;;;;;;;;;;;;;;33.39;18.09;99217.59;5018503;28;20007;-78
2022/10/23 07:07:07;;;;;;;;;;;;;;;32.68;18.75;99212.16;5019083;28;19916;-75
2022/10/23 07:09:34;;;;;;;;;;;;;;;32.21;20.53;99224.19;5004376;28;19917;-73
2022/10/23 07:11:59;;;;;;;;;;;;;;;31.81;20.90;99222.44;5017826;28;19921;-75
2022/10/23 07:14:24;;;;;;;;;;;;;;;31.71;21.24;99225.81;5050328;28;20534;-75
2022/10/23 07:16:50;;;;;;;;;;;;;;;31.48;21.12;99218.63;5004829;28;19929;-77
2022/10/23 07:19:15;;;;;;;;;;;;;;;31.32;20.34;99228.31;4996981;28;19933;-76
2022/10/23 07:21:41;;;;;;;;;;;;;;;31.17;20.98;99229.66;5013561;28;19917;-76
2022/10/23 07:24:08;;;;;;;;;;;;;;;31.25;21.62;99219.53;5017471;28;20376;-77
2022/10/23 07:26:33;;;;;;;;;;;;;;;31.38;21.90;99222.75;5003560;28;19918;-74
2022/10/23 07:28:59;;;;;;;;;;;;;;;31.52;22.44;99220.59;5003217;28;19924;-76
2022/10/23 07:31:24;;;;;;;;;;;;;;;31.74;21.70;99220.72;5004400;28;19932;-78
2022/10/23 07:33:49;;;;;;;;;;;;;;;31.95;23.62;99215.66;5004464;28;19917;-75
2022/10/23 07:36:15;;;;;;;;;;;;;;;31.97;23.29;99216.22;5019873;28;19925;-79
2022/10/23 07:38:40;;;;;;;;;;;;;;;32.04;22.57;99216.88;5019846;28;19925;-76
2022/10/23 07:41:05;;;;;;;;;;;;;;;32.07;22.93;99210.16;5002117;28;19917;-78
2022/10/23 07:43:33;;;;;;;;;;;;;;;32.23;22.62;99214.78;5003983;28;19924;-76
2022/10/23 07:45:59;;;;;;;;;;;;;;;32.30;22.45;99216.47;5003199;28;20320;-75
2022/10/23 07:48:26;;;;;;;;;;;;;;;32.48;21.75;99205.38;5002013;28;19921;-74
2022/10/23 07:50:52;;;;;;;;;;;;;;;32.56;22.11;99207.66;5002583;28;19933;-75
2022/10/23 07:53:21;;;;;;;;;;;;;;;32.70;22.37;99213.53;5021362;28;19917;-76
2022/10/23 07:55:53;;;;;;;;;;;;;;;32.70;21.73;99218.94;5001599;28;19917;-75
2022/10/23 07:58:18;;;;;;;;;;;;;;;32.85;21.99;99223.72;5004750;28;20368;-76
2022/10/23 08:00:44;;;;;;;;;;;;;;;32.87;22.77;99221.59;5018717;28;19925;-77
2022/10/23 08:03:11;;;;;;;;;;;;;;;32.91;22.61;99214.63;5020382;28;19967;-75
2022/10/23 08:05:37;;;;;;;;;;;;;;;32.81;21.89;99209.06;5002580;28;19921;-78
2022/10/23 08:08:02;;;;;;;;;;;;;;;32.95;21.53;99206.81;5022725;28;20297;-76
2022/10/23 08:10:27;;;;;;;;;;;;;;;32.95;21.77;99212.22;5023877;28;19939;-78
2022/10/23 08:12:53;;;;;;;;;;;;;;;33.03;22.04;99217.16;5022242;28;19924;-74
2022/10/23 08:15:18;;;;;;;;;;;;;;;33.04;22.28;99215.31;5009030;28;20004;-73
2022/10/23 08:17:43;;;;;;;;;;;;;;;33.09;21.87;99218.06;5005225;28;19921;-73
2022/10/23 08:20:09;;;;;;;;;;;;;;;33.21;22.66;99217.94;5021909;28;19917;-75
2022/10/23 08:22:36;;;;;;;;;;;;;;;33.33;21.02;99208.59;5021933;28;19924;-75
2022/10/23 08:25:01;;;;;;;;;;;;;;;33.41;20.83;99212.72;5006025;28;20372;-83
2022/10/23 08:27:26;;;;;;;;;;;;;;;33.51;20.83;99207.44;5007327;28;19922;-83
2022/10/23 08:29:52;;;;;;;;;;;;;;;33.52;20.90;99211.75;5021639;28;19918;-84
2022/10/23 08:32:17;;;;;;;;;;;;;;;33.66;20.50;99224.88;5024153;28;19917;-86
2022/10/23 08:34:42;;;;;;;;;;;;;;;33.70;20.13;99223.31;5007719;28;20440;-89
2022/10/23 08:37:07;;;;;;;;;;;;;;;33.62;20.09;99224.59;5026766;28;20381;-78
2022/10/23 08:39:33;;;;;;;;;;;;;;;33.83;20.36;99231.00;5023531;28;20004;-85
2022/10/23 08:41:58;;;;;;;;;;;;;;;33.88;20.97;99222.13;5022457;28;19918;-75
2022/10/23 08:44:25;;;;;;;;;;;;;;;33.83;21.34;99239.13;5022805;28;19925;-73
2022/10/23 08:46:59;;;;;;;;;;;;;;;33.64;18.79;99227.03;5006883;28;19934;-74
2022/10/23 08:49:28;;;;;;;;;;;;;;;33.74;19.80;99229.03;5023461;28;19921;-74
2022/10/23 08:51:54;;;;;;;;;;;;;;;33.76;20.34;99222.28;5020048;28;19929;-75
2022/10/23 08:54:21;;;;;;;;;;;;;;;33.80;21.70;99226.09;5022026;28;19917;-78
2022/10/23 08:56:47;;;;;;;;;;;;;;;33.67;21.57;99226.53;5023044;28;19917;-75
2022/10/23 08:59:18;;;;;;;;;;;;;;;33.70;21.04;99231.41;5005262;28;20400;-72
2022/10/23 09:01:55;;;;;;;;;;;;;;;33.87;21.81;99220.47;5021342;28;20444;-72
2022/10/23 09:04:20;;;;;;;;;;;;;;;34.19;19.58;99220.44;5004923;28;19917;-74
2022/10/23 09:06:45;;;;;;;;;;;;;;;34.60;19.11;99228.00;5024251;28;19925;-79
2022/10/23 09:09:14;;;;;;;;;;;;;;;34.89;19.18;99224.94;5020906;28;19921;-72
2022/10/23 09:11:46;;;;;;;;;;;;;;;34.91;20.01;99220.84;5021980;28;20376;-76
2022/10/23 09:14:29;;;;;;;;;;;;;;;34.94;19.10;99230.38;5022310;28;20360;-79
2022/10/23 09:16:55;;;;;;;;;;;;;;;35.05;19.20;99217.66;5020462;28;19921;-79
2022/10/23 09:19:23;;;;;;;;;;;;;;;34.95;19.62;99218.44;5021032;28;20308;-78
2022/10/23 09:21:48;;;;;;;;;;;;;;;35.05;19.49;99223.09;5020889;28;19928;-79
2022/10/23 09:24:16;;;;;;;;;;;;;;;35.11;19.68;99222.81;5022462;28;19917;-77
2022/10/23 09:26:47;;;;;;;;;;;;;;;35.02;19.18;99221.72;5005751;28;19917;-77
2022/10/23 09:29:26;;;;;;;;;;;;;;;35.07;18.58;99226.34;5020357;28;19923;-76
2022/10/23 09:31:55;;;;;;;;;;;;;;;35.09;19.48;99224.16;5022450;28;19975;-75
2022/10/23 09:34:21;;;;;;;;;;;;;;;35.10;19.56;99221.19;5005705;28;19917;-75
2022/10/23 09:36:59;;;;;;;;;;;;;;;34.99;20.17;99213.31;5020409;28;19929;-76
2022/10/23 09:39:28;;;;;;;;;;;;;;;34.80;19.66;99216.47;5001574;28;19925;-78
2022/10/23 09:41:54;;;;;;;;;;;;;;;34.96;20.10;99220.91;5038839;28;19924;-76
2022/10/23 09:44:20;;;;;;;;;;;;;;;34.93;19.22;99221.44;5004837;28;19925;-70
2022/10/23 09:46:46;;;;;;;;;;;;;;;34.96;19.24;99210.03;5023286;28;19944;-77
2022/10/23 09:49:28;;;;;;;;;;;;;;;35.01;19.30;99213.84;5018307;28;20411;-76
2022/10/23 09:52:03;;;;;;;;;;;;;;;34.91;18.76;99210.00;5018041;28;19917;-77
2022/10/23 09:54:30;;;;;;;;;;;;;;;34.95;18.55;99218.44;5003401;28;20476;-77
2022/10/23 09:57:03;;;;;;;;;;;;;;;34.93;18.48;99209.75;5003468;28;19918;-76
2022/10/23 09:59:28;;;;;;;;;;;;;;;34.75;17.83;99214.56;5003524;28;19975;-75
2022/10/23 10:01:55;;;;;;;;;;;;;;;34.86;18.17;99212.72;5025200;28;19921;-81
2022/10/23 10:04:33;;;;;;;;;;;;;;;34.84;18.95;99209.47;5008315;28;20409;-76
2022/10/23 10:07:00;;;;;;;;;;;;;;;34.61;16.83;99208.78;5019528;28;19968;-80
2022/10/23 10:09:26;;;;;;;;;;;;;;;34.48;18.21;99214.69;5019820;28;19925;-81
2022/10/23 10:11:57;;;;;;;;;;;;;;;34.27;19.68;99208.34;5022968;28;20008;-88
2022/10/23 10:14:22;;;;;;;;;;;;;;;34.21;19.22;99204.75;5020066;28;19918;-85
2022/10/23 10:16:54;;;;;;;;;;;;;;;34.09;19.46;99201.41;5019357;28;19980;-87
2022/10/23 10:19:19;;;;;;;;;;;;;;;33.96;18.00;99201.88;5021365;28;19940;-83
2022/10/23 10:21:45;;;;;;;;;;;;;;;33.75;17.63;99190.03;5021105;28;19933;-78
2022/10/23 10:24:12;;;;;;;;;;;;;;;33.68;17.32;99195.66;5020567;28;20423;-75
2022/10/23 10:27:01;;;;;;;;;;;;;;;33.57;16.79;99192.03;5003754;28;19928;-76
2022/10/23 10:29:35;;;;;;;;;;;;;;;33.56;18.56;99192.28;4998141;28;19979;-75
2022/10/23 10:32:12;;;;;;;;;;;;;;;33.46;20.41;99198.44;5000736;28;20351;-70
2022/10/23 10:34:42;;;;;;;;;;;;;;;33.28;21.11;99188.81;5011900;28;19914;-78
2022/10/23 10:37:14;;;;;;;;;;;;;;;33.14;21.44;99193.75;5028686;28;19925;-76
2022/10/23 10:39:42;;;;;;;;;;;;;;;33.08;21.39;99195.59;5028175;28;20017;-77
2022/10/23 10:42:18;;;;;;;;;;;;;;;33.04;21.83;99183.66;5011505;28;20008;-75
2022/10/23 10:45:04;;;;;;;;;;;;;;;33.08;21.49;99183.97;5028583;28;19941;-76
2022/10/23 10:47:36;;;;;;;;;;;;;;;33.15;21.20;99181.88;4932994;29;20470;-76
2022/10/23 10:50:07;;;;;;;;;;;;;;;33.20;20.75;99187.38;4915736;29;19987;-76
2022/10/23 10:52:33;;;;;;;;;;;;;;;33.14;20.60;99181.06;4932311;29;19958;-77
2022/10/23 10:54:58;;;;;;;;;;;;;;;33.17;20.47;99171.63;4932498;29;19918;-76
2022/10/23 10:57:33;;;;;;;;;;;;;;;33.12;20.20;99172.38;4932388;29;20382;-75
2022/10/23 11:00:19;;;;;;;;;;;;;;;33.09;19.96;99162.06;4916485;29;19926;-75
2022/10/23 11:02:45;;;;;;;;;;;;;;;33.03;20.77;99165.00;4932991;29;19957;-75
2022/10/23 11:05:31;;;;;;;;;;;;;;;32.94;20.11;99154.63;4917999;29;19919;-76
2022/10/23 11:08:21;;;;;;;;;;;;;;;32.78;20.10;99148.25;4971819;28;20041;-75
2022/10/23 11:10:48;;;;;;;;;;;;;;;32.64;20.19;99144.28;4953091;29;19923;-74
2022/10/23 11:13:33;;;;;;;;;;;;;;;32.47;20.33;99153.22;4952887;28;20017;-75
2022/10/23 11:16:09;;;;;;;;;;;;;;;32.28;20.09;99146.50;4952652;28;19918;-75
2022/10/23 11:18:34;;;;;;;;;;;;;;;32.15;19.82;99150.38;4952760;29;19919;-75
2022/10/23 11:21:00;;;;;;;;;;;;;;;31.99;19.79;99135.81;4952664;29;19933;-76
2022/10/23 11:23:40;;;;;;;;;;;;;;;31.86;20.37;99145.06;4936979;28;19926;-75
2022/10/23 11:26:09;;;;;;;;;;;;;;;31.73;20.19;99146.22;4964887;28;20033;-75
2022/10/23 11:28:47;;;;;;;;;;;;;;;31.59;20.30;99136.00;4936441;29;20329;-76
2022/10/23 11:31:28;;;;;;;;;;;;;;;31.50;20.04;99136.41;4936490;29;20432;-75
2022/10/23 11:34:11;;;;;;;;;;;;;;;31.33;20.31;99139.06;4953243;28;20421;-75
2022/10/23 11:36:37;;;;;;;;;;;;;;;31.20;20.58;99137.50;4952505;28;19971;-76
2022/10/23 11:39:25;;;;;;;;;;;;;;;31.08;20.49;99125.94;4952498;28;19922;-76
2022/10/23 11:41:56;;;;;;;;;;;;;;;30.91;20.94;99128.56;4932804;29;20338;-75
2022/10/23 11:44:39;;;;;;;;;;;;;;;30.75;20.72;99126.66;4933365;29;20021;-76
2022/10/23 11:47:05;;;;;;;;;;;;;;;30.60;20.94;99127.16;4945505;28;20344;-75
2022/10/23 11:49:30;;;;;;;;;;;;;;;30.44;21.56;99129.56;4974873;28;19921;-75
2022/10/23 11:52:01;;;;;;;;;;;;;;;30.31;21.77;99127.06;4974295;28;19922;-75
2022/10/23 11:54:27;;;;;;;;;;;;;;;30.15;21.93;99125.94;4975131;28;19925;-76
2022/10/23 11:56:53;;;;;;;;;;;;;;;29.98;21.76;99125.81;4974866;28;20020;-76
2022/10/23 11:59:24;;;;;;;;;;;;;;;29.84;21.60;99124.41;4974645;28;19980;-75
2022/10/23 12:01:50;;;;;;;;;;;;;;;29.72;21.88;99119.81;4974688;28;19927;-75
2022/10/23 12:04:17;;;;;;;;;;;;;;;29.55;22.27;99113.50;4974793;28;20042;-76
2022/10/23 12:06:42;;;;;;;;;;;;;;;29.40;21.86;99117.44;4974588;28;19925;-75
2022/10/23 12:09:21;;;;;;;;;;;;;;;29.30;21.81;99124.44;4990965;28;19922;-75
2022/10/23 12:11:46;;;;;;;;;;;;;;;29.17;22.10;99128.09;4974468;28;19944;-76
2022/10/23 12:14:28;;;;;;;;;;;;;;;29.05;22.19;99123.50;4974444;28;19943;-76
2022/10/23 12:16:53;;;;;;;;;;;;;;;28.95;22.41;99127.78;4990700;28;19961;-74
2022/10/23 12:19:20;;;;;;;;;;;;;;;28.84;22.33;99127.53;4988611;28;19960;-75
2022/10/23 12:21:45;;;;;;;;;;;;;;;28.72;22.81;99134.72;5027604;28;20004;-75
2022/10/23 12:24:21;;;;;;;;;;;;;;;28.64;22.80;99126.97;5044359;28;20372;-74
2022/10/23 12:26:58;;;;;;;;;;;;;;;28.53;22.84;99139.25;5012309;28;20308;-75
2022/10/23 12:29:39;;;;;;;;;;;;;;;28.44;23.03;99129.84;5027720;28;20013;-74
2022/10/23 12:32:04;;;;;;;;;;;;;;;28.32;23.05;99122.53;5010986;28;19968;-76
2022/10/23 12:34:45;;;;;;;;;;;;;;;28.27;23.02;99118.88;5011101;28;19922;-74
2022/10/23 12:37:10;;;;;;;;;;;;;;;28.18;23.08;99126.41;5027629;28;19917;-74
2022/10/23 12:39:37;;;;;;;;;;;;;;;28.11;22.99;99120.28;5011193;28;19976;-74
2022/10/23 12:42:03;;;;;;;;;;;;;;;28.04;23.13;99117.69;5043725;28;20388;-76
2022/10/23 12:44:29;;;;;;;;;;;;;;;27.98;23.13;99127.41;5027583;28;19917;-75
2022/10/23 12:47:00;;;;;;;;;;;;;;;27.92;23.04;99128.25;5043968;28;19917;-76
2022/10/23 12:49:26;;;;;;;;;;;;;;;27.85;23.18;99135.56;5027797;28;19952;-75
2022/10/23 12:52:02;;;;;;;;;;;;;;;27.80;23.32;99122.81;5043821;28;20400;-74